sensor_id;sensor_type;location;lat;lon;timestamp;pressure;altitude;pressure_sealevel;temperature;humidity
34983;BME280;21187;50.976;13.720;2022-07-29T00:00:28;98414.69;;;22.06;28.12
34983;BME280;21187;50.976;13.720;2022-07-29T00:05:30;98411.84;;;22.10;28.01
34983;BME280;21187;50.976;13.720;2022-07-29T00:10:32;98410.72;;;22.07;28.36
34983;BME280;21187;50.976;13.720;2022-07-29T00:15:34;98413.13;;;22.05;28.48
34983;BME280;21187;50.976;13.720;2022-07-29T00:20:36;98403.78;;;21.99;28.66
34983;BME280;21187;50.976;13.720;2022-07-29T00:25:38;98395.63;;;21.92;28.76
34983;BME280;21187;50.976;13.720;2022-07-29T00:30:40;98387.13;;;21.83;29.02
34983;BME280;21187;50.976;13.720;2022-07-29T00:35:44;98380.66;;;21.69;29.28
34983;BME280;21187;50.976;13.720;2022-07-29T00:40:46;98369.63;;;21.69;29.30
34983;BME280;21187;50.976;13.720;2022-07-29T00:45:49;98374.56;;;21.58;29.55
34983;BME280;21187;50.976;13.720;2022-07-29T00:50:51;98370.44;;;21.42;29.87
34983;BME280;21187;50.976;13.720;2022-07-29T00:55:54;98365.88;;;21.32;29.97
34983;BME280;21187;50.976;13.720;2022-07-29T01:00:57;98353.38;;;21.27;30.01
34983;BME280;21187;50.976;13.720;2022-07-29T01:05:59;98339.44;;;21.11;30.41
34983;BME280;21187;50.976;13.720;2022-07-29T01:11:02;98345.13;;;21.00;30.47
34983;BME280;21187;50.976;13.720;2022-07-29T01:16:11;98344.28;;;21.03;30.42
34983;BME280;21187;50.976;13.720;2022-07-29T01:26:47;98338.41;;;21.01;30.32
34983;BME280;21187;50.976;13.720;2022-07-29T01:31:54;98344.28;;;21.03;30.44
34983;BME280;21187;50.976;13.720;2022-07-29T01:37:11;98327.72;;;21.07;30.49
34983;BME280;21187;50.976;13.720;2022-07-29T01:42:34;98324.66;;;21.01;30.57
34983;BME280;21187;50.976;13.720;2022-07-29T01:47:42;98323.31;;;20.86;30.67
34983;BME280;21187;50.976;13.720;2022-07-29T01:52:54;98321.84;;;20.77;31.24
34983;BME280;21187;50.976;13.720;2022-07-29T01:57:58;98322.31;;;20.72;30.99
34983;BME280;21187;50.976;13.720;2022-07-29T02:03:07;98325.84;;;20.73;31.16
34983;BME280;21187;50.976;13.720;2022-07-29T02:08:11;98323.50;;;20.71;31.20
34983;BME280;21187;50.976;13.720;2022-07-29T02:13:16;98320.00;;;20.67;31.43
34983;BME280;21187;50.976;13.720;2022-07-29T02:18:22;98311.34;;;20.65;31.38
34983;BME280;21187;50.976;13.720;2022-07-29T02:23:26;98313.31;;;20.68;31.33
34983;BME280;21187;50.976;13.720;2022-07-29T02:28:29;98308.97;;;20.71;31.61
34983;BME280;21187;50.976;13.720;2022-07-29T02:33:32;98307.00;;;20.71;31.46
34983;BME280;21187;50.976;13.720;2022-07-29T02:38:35;98301.91;;;20.66;31.81
34983;BME280;21187;50.976;13.720;2022-07-29T02:43:56;98297.72;;;20.58;32.05
34983;BME280;21187;50.976;13.720;2022-07-29T02:54:39;98302.03;;;20.59;32.37
34983;BME280;21187;50.976;13.720;2022-07-29T02:59:43;98305.53;;;20.59;32.35
34983;BME280;21187;50.976;13.720;2022-07-29T03:04:47;98309.44;;;20.62;32.39
34983;BME280;21187;50.976;13.720;2022-07-29T03:09:52;98311.00;;;20.63;32.46
34983;BME280;21187;50.976;13.720;2022-07-29T03:14:55;98294.47;;;20.67;32.30
34983;BME280;21187;50.976;13.720;2022-07-29T03:19:58;98297.56;;;20.69;32.66
34983;BME280;21187;50.976;13.720;2022-07-29T03:25:08;98297.13;;;20.74;32.62
34983;BME280;21187;50.976;13.720;2022-07-29T03:30:11;98289.63;;;20.74;32.69
34983;BME280;21187;50.976;13.720;2022-07-29T03:35:22;98295.94;;;20.75;32.70
34983;BME280;21187;50.976;13.720;2022-07-29T03:45:42;98286.50;;;20.76;33.03
34983;BME280;21187;50.976;13.720;2022-07-29T03:50:46;98290.38;;;20.78;33.03
34983;BME280;21187;50.976;13.720;2022-07-29T03:55:51;98276.25;;;20.76;33.19
34983;BME280;21187;50.976;13.720;2022-07-29T04:00:55;98273.91;;;20.75;33.31
34983;BME280;21187;50.976;13.720;2022-07-29T04:06:05;98278.28;;;20.72;33.78
34983;BME280;21187;50.976;13.720;2022-07-29T04:11:08;98288.91;;;20.70;33.72
34983;BME280;21187;50.976;13.720;2022-07-29T04:16:09;98284.97;;;20.71;33.90
34983;BME280;21187;50.976;13.720;2022-07-29T04:21:11;98298.41;;;20.66;33.94
34983;BME280;21187;50.976;13.720;2022-07-29T04:26:13;98292.28;;;20.51;34.24
34983;BME280;21187;50.976;13.720;2022-07-29T04:31:15;98293.84;;;20.52;34.44
34983;BME280;21187;50.976;13.720;2022-07-29T04:36:17;98298.44;;;20.62;34.64
34983;BME280;21187;50.976;13.720;2022-07-29T04:41:30;98290.44;;;20.75;34.52
34983;BME280;21187;50.976;13.720;2022-07-29T04:46:34;98297.38;;;20.83;34.61
34983;BME280;21187;50.976;13.720;2022-07-29T04:51:36;98309.06;;;20.91;34.68
34983;BME280;21187;50.976;13.720;2022-07-29T04:56:39;98301.28;;;20.86;34.75
34983;BME280;21187;50.976;13.720;2022-07-29T05:01:41;98297.34;;;20.87;34.82
34983;BME280;21187;50.976;13.720;2022-07-29T05:06:43;98291.66;;;20.98;35.03
34983;BME280;21187;50.976;13.720;2022-07-29T05:11:45;98291.50;;;21.08;34.66
34983;BME280;21187;50.976;13.720;2022-07-29T05:16:47;98288.16;;;21.21;34.76
34983;BME280;21187;50.976;13.720;2022-07-29T05:21:51;98280.00;;;21.37;34.55
34983;BME280;21187;50.976;13.720;2022-07-29T05:26:53;98286.84;;;21.53;34.46
34983;BME280;21187;50.976;13.720;2022-07-29T05:31:54;98298.34;;;21.71;34.60
34983;BME280;21187;50.976;13.720;2022-07-29T05:36:57;98297.59;;;21.91;34.34
34983;BME280;21187;50.976;13.720;2022-07-29T05:41:59;98292.06;;;22.11;34.25
34983;BME280;21187;50.976;13.720;2022-07-29T05:47:01;98290.97;;;22.25;34.33
34983;BME280;21187;50.976;13.720;2022-07-29T05:52:03;98293.91;;;22.38;34.28
34983;BME280;21187;50.976;13.720;2022-07-29T05:57:05;98293.66;;;22.49;34.30
34983;BME280;21187;50.976;13.720;2022-07-29T06:02:07;98291.09;;;22.58;34.29
34983;BME280;21187;50.976;13.720;2022-07-29T06:07:09;98293.28;;;22.67;34.08
34983;BME280;21187;50.976;13.720;2022-07-29T06:12:12;98297.88;;;22.73;34.41
34983;BME280;21187;50.976;13.720;2022-07-29T06:17:16;98292.91;;;22.85;34.32
34983;BME280;21187;50.976;13.720;2022-07-29T06:22:18;98297.41;;;22.95;34.29
34983;BME280;21187;50.976;13.720;2022-07-29T06:27:19;98305.84;;;23.04;34.24
34983;BME280;21187;50.976;13.720;2022-07-29T06:32:21;98305.00;;;23.07;34.16
34983;BME280;21187;50.976;13.720;2022-07-29T06:37:27;98308.81;;;23.14;34.09
34983;BME280;21187;50.976;13.720;2022-07-29T06:42:32;98308.63;;;23.21;34.33
34983;BME280;21187;50.976;13.720;2022-07-29T06:47:34;98314.09;;;23.24;34.31
34983;BME280;21187;50.976;13.720;2022-07-29T06:52:38;98307.09;;;23.36;34.20
34983;BME280;21187;50.976;13.720;2022-07-29T06:57:40;98316.22;;;23.50;34.07
34983;BME280;21187;50.976;13.720;2022-07-29T07:02:42;98323.47;;;23.60;34.09
34983;BME280;21187;50.976;13.720;2022-07-29T07:07:44;98320.41;;;23.71;33.93
34983;BME280;21187;50.976;13.720;2022-07-29T07:12:46;98315.63;;;23.88;33.88
34983;BME280;21187;50.976;13.720;2022-07-29T07:17:48;98316.13;;;23.99;33.78
34983;BME280;21187;50.976;13.720;2022-07-29T07:22:50;98323.03;;;24.07;33.47
34983;BME280;21187;50.976;13.720;2022-07-29T07:27:52;98320.41;;;24.17;33.71
34983;BME280;21187;50.976;13.720;2022-07-29T07:32:54;98321.75;;;24.25;33.54
34983;BME280;21187;50.976;13.720;2022-07-29T07:37:57;98330.00;;;24.41;33.63
34983;BME280;21187;50.976;13.720;2022-07-29T07:42:59;98321.50;;;24.62;33.28
34983;BME280;21187;50.976;13.720;2022-07-29T07:48:00;98323.97;;;24.85;32.78
34983;BME280;21187;50.976;13.720;2022-07-29T07:53:02;98317.00;;;25.06;32.85
34983;BME280;21187;50.976;13.720;2022-07-29T07:58:04;98315.97;;;25.26;32.45
34983;BME280;21187;50.976;13.720;2022-07-29T08:03:06;98314.53;;;25.47;32.30
34983;BME280;21187;50.976;13.720;2022-07-29T08:08:17;98306.47;;;25.62;32.42
34983;BME280;21187;50.976;13.720;2022-07-29T08:13:26;98293.97;;;25.80;32.18
34983;BME280;21187;50.976;13.720;2022-07-29T08:18:32;98301.00;;;26.06;31.80
34983;BME280;21187;50.976;13.720;2022-07-29T08:23:35;98297.16;;;26.35;32.04
34983;BME280;21187;50.976;13.720;2022-07-29T08:28:49;98290.97;;;26.63;31.81
34983;BME280;21187;50.976;13.720;2022-07-29T08:33:52;98285.66;;;26.78;31.60
34983;BME280;21187;50.976;13.720;2022-07-29T08:38:54;98288.81;;;26.98;31.47
34983;BME280;21187;50.976;13.720;2022-07-29T08:43:56;98287.94;;;27.20;30.83
34983;BME280;21187;50.976;13.720;2022-07-29T08:48:58;98294.31;;;27.30;30.74
34983;BME280;21187;50.976;13.720;2022-07-29T08:54:00;98292.03;;;27.37;30.65
34983;BME280;21187;50.976;13.720;2022-07-29T08:59:04;98288.78;;;27.48;30.74
34983;BME280;21187;50.976;13.720;2022-07-29T09:04:10;98284.94;;;27.55;30.34
34983;BME280;21187;50.976;13.720;2022-07-29T09:09:13;98279.06;;;27.62;30.31
34983;BME280;21187;50.976;13.720;2022-07-29T09:14:16;98282.16;;;27.83;30.21
34983;BME280;21187;50.976;13.720;2022-07-29T09:19:23;98274.56;;;28.11;29.91
34983;BME280;21187;50.976;13.720;2022-07-29T09:24:37;98266.94;;;28.30;29.61
34983;BME280;21187;50.976;13.720;2022-07-29T09:29:41;98269.03;;;28.54;29.47
34983;BME280;21187;50.976;13.720;2022-07-29T09:34:43;98269.75;;;28.64;29.36
34983;BME280;21187;50.976;13.720;2022-07-29T09:39:45;98260.56;;;28.82;28.97
34983;BME280;21187;50.976;13.720;2022-07-29T09:44:49;98251.94;;;29.04;28.96
34983;BME280;21187;50.976;13.720;2022-07-29T09:55:08;98253.22;;;29.66;28.09
34983;BME280;21187;50.976;13.720;2022-07-29T10:00:19;98252.47;;;29.81;27.81
34983;BME280;21187;50.976;13.720;2022-07-29T10:05:25;98249.34;;;30.18;27.75
34983;BME280;21187;50.976;13.720;2022-07-29T10:10:39;98248.47;;;30.57;27.31
34983;BME280;21187;50.976;13.720;2022-07-29T10:15:44;98245.81;;;30.68;26.66
34983;BME280;21187;50.976;13.720;2022-07-29T10:20:48;98248.06;;;30.64;26.64
34983;BME280;21187;50.976;13.720;2022-07-29T10:25:50;98248.19;;;30.90;26.33
34983;BME280;21187;50.976;13.720;2022-07-29T10:30:52;98222.63;;;31.39;25.85
34983;BME280;21187;50.976;13.720;2022-07-29T10:46:45;98229.44;;;31.58;25.42
34983;BME280;21187;50.976;13.720;2022-07-29T10:57:15;98217.66;;;31.28;25.38
34983;BME280;21187;50.976;13.720;2022-07-29T11:19:19;98213.53;;;31.23;24.97
34983;BME280;21187;50.976;13.720;2022-07-29T11:24:30;98215.28;;;31.41;24.53
34983;BME280;21187;50.976;13.720;2022-07-29T11:35:17;98206.50;;;31.54;24.35
34983;BME280;21187;50.976;13.720;2022-07-29T11:40:39;98217.69;;;31.54;24.35
34983;BME280;21187;50.976;13.720;2022-07-29T11:45:46;98199.28;;;31.68;24.46
34983;BME280;21187;50.976;13.720;2022-07-29T11:50:49;98196.19;;;31.92;23.87
34983;BME280;21187;50.976;13.720;2022-07-29T11:55:54;98196.13;;;32.13;23.78
34983;BME280;21187;50.976;13.720;2022-07-29T12:01:17;98203.75;;;32.12;23.61
34983;BME280;21187;50.976;13.720;2022-07-29T12:06:20;98209.13;;;32.16;23.83
34983;BME280;21187;50.976;13.720;2022-07-29T12:11:22;98206.53;;;32.12;23.78
34983;BME280;21187;50.976;13.720;2022-07-29T12:16:34;98192.16;;;32.25;23.70
34983;BME280;21187;50.976;13.720;2022-07-29T12:26:58;98188.97;;;32.12;23.82
34983;BME280;21187;50.976;13.720;2022-07-29T12:32:03;98183.88;;;32.10;23.76
34983;BME280;21187;50.976;13.720;2022-07-29T12:37:15;98184.47;;;31.88;23.80
34983;BME280;21187;50.976;13.720;2022-07-29T12:42:18;98180.56;;;31.80;24.15
34983;BME280;21187;50.976;13.720;2022-07-29T12:47:20;98183.03;;;31.72;24.03
34983;BME280;21187;50.976;13.720;2022-07-29T12:52:31;98179.19;;;31.69;24.16
34983;BME280;21187;50.976;13.720;2022-07-29T12:57:48;98168.66;;;31.85;23.85
34983;BME280;21187;50.976;13.720;2022-07-29T13:02:55;98168.28;;;32.03;23.32
34983;BME280;21187;50.976;13.720;2022-07-29T13:08:12;98156.97;;;32.18;23.49
34983;BME280;21187;50.976;13.720;2022-07-29T13:13:23;98165.31;;;32.13;23.38
34983;BME280;21187;50.976;13.720;2022-07-29T13:18:35;98160.56;;;32.19;23.14
34983;BME280;21187;50.976;13.720;2022-07-29T13:23:37;98159.03;;;32.24;23.08
34983;BME280;21187;50.976;13.720;2022-07-29T13:28:40;98171.16;;;32.15;23.51
34983;BME280;21187;50.976;13.720;2022-07-29T13:33:44;98170.91;;;32.13;23.29
34983;BME280;21187;50.976;13.720;2022-07-29T13:38:46;98156.31;;;32.03;23.46
34983;BME280;21187;50.976;13.720;2022-07-29T13:43:48;98159.25;;;32.20;23.23
34983;BME280;21187;50.976;13.720;2022-07-29T13:48:50;98157.81;;;32.30;22.99
34983;BME280;21187;50.976;13.720;2022-07-29T13:53:52;98151.50;;;32.41;22.68
34983;BME280;21187;50.976;13.720;2022-07-29T13:58:54;98148.75;;;32.47;22.80
34983;BME280;21187;50.976;13.720;2022-07-29T14:03:57;98144.44;;;32.51;22.97
34983;BME280;21187;50.976;13.720;2022-07-29T14:08:59;98149.63;;;32.70;22.49
34983;BME280;21187;50.976;13.720;2022-07-29T14:14:01;98140.72;;;32.72;22.52
34983;BME280;21187;50.976;13.720;2022-07-29T14:19:03;98128.97;;;32.67;22.63
34983;BME280;21187;50.976;13.720;2022-07-29T14:24:05;98135.13;;;32.72;22.58
34983;BME280;21187;50.976;13.720;2022-07-29T14:29:22;98122.50;;;32.44;22.51
34983;BME280;21187;50.976;13.720;2022-07-29T14:34:38;98130.59;;;32.37;22.60
34983;BME280;21187;50.976;13.720;2022-07-29T14:39:41;98132.66;;;32.42;22.49
34983;BME280;21187;50.976;13.720;2022-07-29T14:44:44;98124.06;;;32.51;22.40
34983;BME280;21187;50.976;13.720;2022-07-29T14:49:47;98137.59;;;32.58;22.45
34983;BME280;21187;50.976;13.720;2022-07-29T14:54:49;98125.00;;;32.80;22.01
34983;BME280;21187;50.976;13.720;2022-07-29T14:59:51;98120.94;;;32.92;22.18
34983;BME280;21187;50.976;13.720;2022-07-29T15:04:53;98137.78;;;32.92;22.03
34983;BME280;21187;50.976;13.720;2022-07-29T15:09:55;98134.69;;;32.90;22.14
34983;BME280;21187;50.976;13.720;2022-07-29T15:15:00;98136.72;;;32.84;22.09
34983;BME280;21187;50.976;13.720;2022-07-29T15:20:05;98125.16;;;32.71;22.36
34983;BME280;21187;50.976;13.720;2022-07-29T15:25:08;98119.84;;;32.73;22.33
34983;BME280;21187;50.976;13.720;2022-07-29T15:30:10;98125.22;;;32.76;22.08
34983;BME280;21187;50.976;13.720;2022-07-29T15:35:32;98117.22;;;32.63;22.35
34983;BME280;21187;50.976;13.720;2022-07-29T15:40:41;98114.63;;;32.54;22.22
34983;BME280;21187;50.976;13.720;2022-07-29T15:45:44;98105.69;;;32.50;22.55
34983;BME280;21187;50.976;13.720;2022-07-29T15:51:05;98097.78;;;32.43;22.29
34983;BME280;21187;50.976;13.720;2022-07-29T15:56:07;98098.47;;;32.32;22.26
34983;BME280;21187;50.976;13.720;2022-07-29T16:01:09;98091.56;;;32.27;22.43
34983;BME280;21187;50.976;13.720;2022-07-29T16:06:12;98075.50;;;32.22;22.68
34983;BME280;21187;50.976;13.720;2022-07-29T16:11:14;98089.91;;;32.15;22.70
34983;BME280;21187;50.976;13.720;2022-07-29T16:16:17;98085.31;;;32.06;22.72
34983;BME280;21187;50.976;13.720;2022-07-29T16:21:20;98072.47;;;31.94;22.78
34983;BME280;21187;50.976;13.720;2022-07-29T16:26:23;98070.91;;;31.87;22.91
34983;BME280;21187;50.976;13.720;2022-07-29T16:31:26;98074.41;;;31.82;23.08
34983;BME280;21187;50.976;13.720;2022-07-29T16:36:29;98073.88;;;31.78;23.00
34983;BME280;21187;50.976;13.720;2022-07-29T16:41:31;98079.44;;;31.72;22.97
34983;BME280;21187;50.976;13.720;2022-07-29T16:46:33;98075.34;;;31.67;23.30
34983;BME280;21187;50.976;13.720;2022-07-29T16:51:42;98080.69;;;31.65;23.16
34983;BME280;21187;50.976;13.720;2022-07-29T16:56:44;98084.47;;;31.62;23.43
34983;BME280;21187;50.976;13.720;2022-07-29T17:01:46;98075.47;;;31.58;23.64
34983;BME280;21187;50.976;13.720;2022-07-29T17:06:48;98078.28;;;31.58;23.25
34983;BME280;21187;50.976;13.720;2022-07-29T17:11:51;98072.16;;;31.54;23.79
34983;BME280;21187;50.976;13.720;2022-07-29T17:16:57;98071.59;;;31.50;23.50
34983;BME280;21187;50.976;13.720;2022-07-29T17:22:04;98066.69;;;31.39;23.88
34983;BME280;21187;50.976;13.720;2022-07-29T17:27:19;98070.41;;;31.30;23.90
34983;BME280;21187;50.976;13.720;2022-07-29T17:32:21;98076.47;;;31.23;24.02
34983;BME280;21187;50.976;13.720;2022-07-29T17:37:23;98073.63;;;31.17;24.16
34983;BME280;21187;50.976;13.720;2022-07-29T17:42:25;98073.81;;;31.14;24.02
34983;BME280;21187;50.976;13.720;2022-07-29T17:47:27;98070.75;;;31.12;24.34
34983;BME280;21187;50.976;13.720;2022-07-29T17:52:30;98072.72;;;31.06;24.42
34983;BME280;21187;50.976;13.720;2022-07-29T17:57:32;98058.63;;;31.00;24.44
34983;BME280;21187;50.976;13.720;2022-07-29T18:02:34;98062.13;;;30.95;24.46
34983;BME280;21187;50.976;13.720;2022-07-29T18:07:38;98058.53;;;30.89;24.88
34983;BME280;21187;50.976;13.720;2022-07-29T18:12:43;98057.91;;;30.79;24.86
34983;BME280;21187;50.976;13.720;2022-07-29T18:17:48;98070.50;;;30.68;24.58
34983;BME280;21187;50.976;13.720;2022-07-29T18:22:58;98073.16;;;30.57;25.09
34983;BME280;21187;50.976;13.720;2022-07-29T18:28:03;98068.97;;;30.47;25.19
34983;BME280;21187;50.976;13.720;2022-07-29T18:33:05;98079.75;;;30.39;25.03
34983;BME280;21187;50.976;13.720;2022-07-29T18:38:22;98079.41;;;30.31;25.37
34983;BME280;21187;50.976;13.720;2022-07-29T18:43:24;98077.72;;;30.19;25.39
34983;BME280;21187;50.976;13.720;2022-07-29T18:48:26;98067.34;;;30.04;25.32
34983;BME280;21187;50.976;13.720;2022-07-29T18:53:28;98078.34;;;29.93;25.37
34983;BME280;21187;50.976;13.720;2022-07-29T18:58:30;98081.22;;;29.84;25.33
34983;BME280;21187;50.976;13.720;2022-07-29T19:03:34;98084.13;;;29.75;25.76
34983;BME280;21187;50.976;13.720;2022-07-29T19:08:35;98081.44;;;29.65;25.75
34983;BME280;21187;50.976;13.720;2022-07-29T19:13:37;98091.44;;;29.57;25.96
34983;BME280;21187;50.976;13.720;2022-07-29T19:18:40;98096.16;;;29.51;26.06
34983;BME280;21187;50.976;13.720;2022-07-29T19:23:42;98107.72;;;29.44;26.16
34983;BME280;21187;50.976;13.720;2022-07-29T19:29:05;98119.53;;;29.38;26.36
34983;BME280;21187;50.976;13.720;2022-07-29T19:34:07;98109.84;;;29.34;26.23
34983;BME280;21187;50.976;13.720;2022-07-29T19:39:10;98101.72;;;29.21;26.72
34983;BME280;21187;50.976;13.720;2022-07-29T19:44:12;98123.13;;;29.15;26.77
34983;BME280;21187;50.976;13.720;2022-07-29T19:49:14;98117.94;;;29.08;26.83
34983;BME280;21187;50.976;13.720;2022-07-29T19:54:16;98123.22;;;29.05;27.26
34983;BME280;21187;50.976;13.720;2022-07-29T19:59:18;98133.78;;;29.01;26.93
34983;BME280;21187;50.976;13.720;2022-07-29T20:04:25;98135.41;;;28.93;27.56
34983;BME280;21187;50.976;13.720;2022-07-29T20:09:27;98130.75;;;28.90;27.57
34983;BME280;21187;50.976;13.720;2022-07-29T20:14:30;98134.56;;;28.78;27.77
34983;BME280;21187;50.976;13.720;2022-07-29T20:19:32;98123.78;;;28.70;27.87
34983;BME280;21187;50.976;13.720;2022-07-29T20:24:34;98127.84;;;28.60;27.93
34983;BME280;21187;50.976;13.720;2022-07-29T20:29:36;98123.84;;;28.52;28.32
34983;BME280;21187;50.976;13.720;2022-07-29T20:34:39;98132.28;;;28.43;28.61
34983;BME280;21187;50.976;13.720;2022-07-29T20:39:43;98140.38;;;28.31;28.58
34983;BME280;21187;50.976;13.720;2022-07-29T20:44:48;98136.84;;;28.21;28.85
34983;BME280;21187;50.976;13.720;2022-07-29T20:49:51;98130.25;;;28.10;28.94
34983;BME280;21187;50.976;13.720;2022-07-29T20:54:53;98134.94;;;28.03;28.97
34983;BME280;21187;50.976;13.720;2022-07-29T20:59:55;98135.22;;;27.96;29.17
34983;BME280;21187;50.976;13.720;2022-07-29T21:04:57;98141.16;;;27.89;29.23
34983;BME280;21187;50.976;13.720;2022-07-29T21:09:59;98156.97;;;27.36;30.19
34983;BME280;21187;50.976;13.720;2022-07-29T21:15:01;98140.91;;;27.59;29.81
34983;BME280;21187;50.976;13.720;2022-07-29T21:20:07;98132.56;;;27.59;29.80
34983;BME280;21187;50.976;13.720;2022-07-29T21:25:10;98130.88;;;27.52;29.89
34983;BME280;21187;50.976;13.720;2022-07-29T21:30:12;98139.06;;;27.47;29.96
34983;BME280;21187;50.976;13.720;2022-07-29T21:35:15;98146.50;;;27.40;30.27
34983;BME280;21187;50.976;13.720;2022-07-29T21:40:37;98138.47;;;27.43;30.03
34983;BME280;21187;50.976;13.720;2022-07-29T21:45:40;98135.38;;;27.40;30.44
34983;BME280;21187;50.976;13.720;2022-07-29T21:50:43;98136.91;;;27.32;30.44
34983;BME280;21187;50.976;13.720;2022-07-29T21:55:45;98127.16;;;27.09;30.85
34983;BME280;21187;50.976;13.720;2022-07-29T22:00:48;98140.94;;;26.44;32.43
34983;BME280;21187;50.976;13.720;2022-07-29T22:05:50;98134.56;;;26.25;32.59
34983;BME280;21187;50.976;13.720;2022-07-29T22:10:53;98141.16;;;26.18;33.06
34983;BME280;21187;50.976;13.720;2022-07-29T22:15:55;98143.47;;;26.11;33.38
34983;BME280;21187;50.976;13.720;2022-07-29T22:20:57;98133.81;;;26.02;33.86
34983;BME280;21187;50.976;13.720;2022-07-29T22:25:59;98139.00;;;25.91;33.73
34983;BME280;21187;50.976;13.720;2022-07-29T22:31:01;98133.72;;;25.84;33.80
34983;BME280;21187;50.976;13.720;2022-07-29T22:36:03;98130.66;;;25.82;33.83
34983;BME280;21187;50.976;13.720;2022-07-29T22:41:05;98135.56;;;25.78;34.26
34983;BME280;21187;50.976;13.720;2022-07-29T22:46:09;98125.34;;;25.74;34.32
34983;BME280;21187;50.976;13.720;2022-07-29T22:51:12;98135.69;;;25.74;34.23
34983;BME280;21187;50.976;13.720;2022-07-29T22:56:14;98124.72;;;25.70;34.19
34983;BME280;21187;50.976;13.720;2022-07-29T23:01:16;98128.06;;;25.65;34.34
34983;BME280;21187;50.976;13.720;2022-07-29T23:06:38;98126.53;;;25.64;34.16
34983;BME280;21187;50.976;13.720;2022-07-29T23:11:40;98124.66;;;25.61;34.60
34983;BME280;21187;50.976;13.720;2022-07-29T23:16:42;98117.25;;;25.58;34.49
34983;BME280;21187;50.976;13.720;2022-07-29T23:21:44;98122.16;;;25.54;34.83
34983;BME280;21187;50.976;13.720;2022-07-29T23:26:46;98134.50;;;25.18;35.51
34983;BME280;21187;50.976;13.720;2022-07-29T23:31:47;98137.69;;;24.94;36.52
34983;BME280;21187;50.976;13.720;2022-07-29T23:36:49;98138.84;;;24.84;37.49
34983;BME280;21187;50.976;13.720;2022-07-29T23:41:51;98144.00;;;25.07;37.21
34983;BME280;21187;50.976;13.720;2022-07-29T23:46:53;98138.09;;;25.05;38.31
34983;BME280;21187;50.976;13.720;2022-07-29T23:51:55;98146.06;;;24.81;39.57
34983;BME280;21187;50.976;13.720;2022-07-29T23:56:57;98143.97;;;24.72;39.94
